| time (UTC) | temp F | wind direction | speed knots | gust knots | rain 1hr in | rain 24hr in | rain mn in | humidity % | barometer mb |
| 20260510234814 | 64 | 304 | 1.7 | 2.6 | 0.00 | 0.00 | 0.00 | 60 | 1013.3 |
| 20260510234414 | 64 | 127 | 0.0 | 3.5 | 0.00 | 0.00 | 0.00 | 61 | 1013.6 |
| 20260510233919 | 64 | 112 | 0.0 | 0.9 | 0.00 | 0.00 | 0.00 | 62 | 1013.5 |
| 20260510233501 | 63 | 130 | 0.0 | 1.7 | 0.00 | 0.00 | 0.00 | 62 | 1013.6 |
| 20260510233054 | 63 | 109 | 0.0 | 1.7 | 0.00 | 0.00 | 0.00 | 63 | 1013.6 |
| 20260510232644 | 64 | 102 | 0.0 | 0.9 | 0.00 | 0.00 | 0.00 | 63 | 1013.6 |
| 20260510232244 | 63 | 111 | 0.0 | 1.7 | 0.00 | 0.00 | 0.00 | 63 | 1013.8 |
| 20260510231839 | 63 | 102 | 0.0 | 0.9 | 0.00 | 0.00 | 0.00 | 63 | 1013.7 |
| 20260510231432 | 63 | 99 | 0.0 | 0.9 | 0.00 | 0.00 | 0.00 | 63 | 1013.5 |
| 20260510231024 | 63 | 93 | 0.0 | 0.0 | 0.00 | 0.00 | 0.00 | 64 | 1013.8 |
| 20260510230529 | 63 | 93 | 0.0 | 1.7 | 0.00 | 0.00 | 0.00 | 64 | 1013.6 |
| 20260510230044 | 64 | 96 | 0.0 | 0.9 | 0.00 | 0.00 | 0.00 | 63 | 1013.7 |
| 20260510225547 | 64 | 103 | 0.0 | 1.7 | 0.00 | 0.00 | 0.00 | 63 | 1013.5 |
| 20260510225139 | 63 | 92 | 0.9 | 2.6 | 0.00 | 0.00 | 0.00 | 63 | 1013.7 |
| 20260510224727 | 64 | 105 | 0.0 | 1.7 | 0.00 | 0.00 | 0.00 | 64 | 1013.7 |
| 20260510224234 | 65 | 73 | 0.9 | 1.7 | 0.00 | 0.00 | 0.00 | 62 | 1013.8 |
| 20260510223829 | 65 | 138 | 0.9 | 3.5 | 0.00 | 0.00 | 0.00 | 60 | 1013.8 |
| 20260510223404 | 65 | 263 | 2.6 | 3.5 | 0.00 | 0.00 | 0.00 | 60 | 1013.8 |
| 20260510222955 | 65 | 245 | 0.9 | 4.3 | 0.00 | 0.00 | 0.00 | 60 | 1013.8 |
| 20260510222555 | 65 | 75 | 0.9 | 1.7 | 0.00 | 0.00 | 0.00 | 60 | 1013.8 |
| 20260510222139 | 65 | 353 | 2.6 | 5.2 | 0.00 | 0.00 | 0.00 | 59 | 1013.6 |
| 20260510221731 | 65 | 164 | 0.9 | 3.5 | 0.00 | 0.00 | 0.00 | 60 | 1013.8 |
| 20260510221240 | 65 | 227 | 2.6 | 5.2 | 0.00 | 0.00 | 0.00 | 60 | 1013.8 |
| 20260510220819 | 65 | 324 | 1.7 | 3.5 | 0.00 | 0.00 | 0.00 | 61 | 1013.7 |
| 20260510220354 | 65 | 261 | 2.6 | 4.3 | 0.00 | 0.00 | 0.00 | 61 | 1013.7 |
| 20260510215944 | 65 | 169 | 2.6 | 3.5 | 0.00 | 0.01 | 0.01 | 61 | 1013.6 |
| 20260510215529 | 65 | 251 | 1.7 | 3.5 | 0.00 | 0.01 | 0.01 | 61 | 1013.7 |
| 20260510215127 | 65 | 39 | 1.7 | 3.5 | 0.00 | 0.01 | 0.01 | 62 | 1013.6 |
| 20260510214714 | 65 | 93 | 0.0 | 0.9 | 0.00 | 0.01 | 0.01 | 63 | 1013.8 |
| 20260510214304 | 65 | 116 | 0.0 | 0.0 | 0.00 | 0.01 | 0.01 | 63 | 1013.6 |
| 20260510213847 | 65 | 104 | 0.0 | 0.9 | 0.00 | 0.01 | 0.01 | 65 | 1013.8 |
| 20260510213439 | 65 | 102 | 0.9 | 1.7 | 0.00 | 0.01 | 0.01 | 64 | 1013.7 |
| 20260510213027 | 65 | 49 | 1.7 | 2.6 | 0.00 | 0.01 | 0.01 | 63 | 1013.7 |
| 20260510212603 | 65 | 105 | 0.0 | 0.0 | 0.00 | 0.01 | 0.01 | 64 | 1013.7 |
| 20260510212109 | 65 | 122 | 0.0 | 2.6 | 0.00 | 0.01 | 0.01 | 63 | 1013.8 |
| 20260510211629 | 65 | 35 | 0.0 | 1.7 | 0.00 | 0.01 | 0.01 | 62 | 1013.7 |
| 20260510211214 | 65 | 157 | 0.0 | 0.9 | 0.00 | 0.01 | 0.01 | 62 | 1013.7 |
| 20260510210814 | 65 | 102 | 0.0 | 1.7 | 0.00 | 0.01 | 0.01 | 61 | 1013.7 |
| 20260510210404 | 65 | 175 | 1.7 | 1.7 | 0.00 | 0.01 | 0.01 | 62 | 1013.7 |
| 20260510205959 | 66 | 75 | 0.0 | 1.7 | 0.00 | 0.01 | 0.01 | 62 | 1013.8 |
| 20260510205539 | 66 | 255 | 0.9 | 2.6 | 0.00 | 0.01 | 0.01 | 61 | 1013.9 |
| 20260510205049 | 66 | 107 | 0.0 | 0.9 | 0.00 | 0.01 | 0.01 | 63 | 1013.6 |
| 20260510204559 | 66 | 190 | 0.0 | 1.7 | 0.00 | 0.01 | 0.01 | 62 | 1013.5 |
| 20260510204149 | 66 | 90 | 0.0 | 1.7 | 0.00 | 0.01 | 0.01 | 63 | 1013.7 |
| 20260510203659 | 66 | 284 | 0.9 | 4.3 | 0.00 | 0.01 | 0.01 | 63 | 1013.6 |
| 20260510203218 | 66 | 125 | 1.7 | 2.6 | 0.00 | 0.01 | 0.01 | 64 | 1013.6 |
| 20260510202734 | 66 | 127 | 0.0 | 0.9 | 0.00 | 0.01 | 0.01 | 64 | 1013.7 |
| 20260510202319 | 66 | 97 | 0.0 | 2.6 | 0.00 | 0.01 | 0.01 | 64 | 1013.6 |
| 20260510201839 | 66 | 83 | 0.9 | 2.6 | 0.00 | 0.01 | 0.01 | 64 | 1013.5 |
| 20260510201359 | 66 | 95 | 0.0 | 0.9 | 0.00 | 0.01 | 0.01 | 65 | 1013.5 |
| 20260510200909 | 66 | 84 | 0.0 | 0.9 | 0.00 | 0.01 | 0.01 | 65 | 1013.3 |
| 20260510200504 | 66 | 111 | 0.9 | 1.7 | 0.00 | 0.01 | 0.01 | 65 | 1013.5 |
| 20260510200059 | 66 | 103 | 0.0 | 0.0 | 0.00 | 0.01 | 0.01 | 64 | 1013.2 |
| 20260510195604 | 66 | 107 | 0.0 | 0.0 | 0.00 | 0.01 | 0.01 | 63 | 1013.1 |
| 20260510195159 | 66 | 111 | 0.0 | 0.9 | 0.00 | 0.01 | 0.01 | 64 | 1013.0 |
| 20260510194704 | 66 | 134 | 0.0 | 1.7 | 0.00 | 0.01 | 0.01 | 63 | 1012.9 |
| 20260510194259 | 67 | 145 | 0.9 | 1.7 | 0.00 | 0.01 | 0.01 | 62 | 1013.1 |
| 20260510193832 | 67 | 92 | 0.9 | 2.6 | 0.00 | 0.01 | 0.01 | 61 | 1012.9 |
| 20260510193429 | 67 | 73 | 0.9 | 1.7 | 0.00 | 0.01 | 0.01 | 60 | 1012.9 |
| 20260510192934 | 68 | 163 | 0.0 | 1.7 | 0.00 | 0.01 | 0.01 | 59 | 1012.8 |
| 20260510192519 | 68 | 95 | 1.7 | 5.2 | 0.00 | 0.01 | 0.01 | 58 | 1012.5 |
| 20260510192034 | 68 | 98 | 0.0 | 2.6 | 0.00 | 0.01 | 0.01 | 57 | 1012.5 |
| 20260510191626 | 68 | 235 | 2.6 | 4.3 | 0.00 | 0.01 | 0.01 | 56 | 1012.9 |
| 20260510191209 | 69 | 221 | 3.5 | 7.0 | 0.00 | 0.01 | 0.01 | 55 | 1012.8 |
| 20260510190800 | 69 | 163 | 2.6 | 4.3 | 0.00 | 0.01 | 0.01 | 53 | 1012.5 |
| 20260510190404 | 69 | 237 | 6.1 | 7.8 | 0.00 | 0.01 | 0.01 | 52 | 1012.5 |
| 20260510185958 | 69 | 217 | 2.6 | 4.3 | 0.00 | 0.01 | 0.01 | 52 | 1012.5 |
| 20260510185544 | 69 | 197 | 3.5 | 4.3 | 0.00 | 0.01 | 0.01 | 52 | 1012.8 |
| 20260510185144 | 69 | 212 | 3.5 | 5.2 | 0.00 | 0.01 | 0.01 | 52 | 1012.5 |
| 20260510184654 | 69 | 314 | 2.6 | 5.2 | 0.00 | 0.01 | 0.01 | 52 | 1012.4 |
| 20260510184214 | 69 | 202 | 3.5 | 5.2 | 0.00 | 0.01 | 0.01 | 52 | 1012.4 |
| 20260510183754 | 70 | 199 | 2.6 | 7.0 | 0.00 | 0.01 | 0.01 | 52 | 1012.6 |
| 20260510183349 | 70 | 202 | 4.3 | 7.8 | 0.00 | 0.01 | 0.01 | 51 | 1012.6 |
| 20260510182934 | 70 | 205 | 3.5 | 9.6 | 0.00 | 0.01 | 0.01 | 52 | 1012.8 |
| 20260510182459 | 70 | 263 | 2.6 | 5.2 | 0.00 | 0.01 | 0.01 | 52 | 1013.0 |
| 20260510182019 | 70 | 167 | 1.7 | 2.6 | 0.00 | 0.01 | 0.01 | 53 | 1013.0 |
| 20260510181606 | 70 | 176 | 2.6 | 5.2 | 0.00 | 0.01 | 0.01 | 53 | 1012.5 |
| 20260510181159 | 70 | 173 | 1.7 | 2.6 | 0.00 | 0.01 | 0.01 | 52 | 1012.6 |
| 20260510180729 | 71 | 45 | 0.9 | 1.7 | 0.00 | 0.01 | 0.01 | 54 | 1012.6 |
| 20260510180309 | 71 | 113 | 0.9 | 2.6 | 0.00 | 0.01 | 0.01 | 51 | 1012.9 |
| 20260510175859 | 70 | 91 | 0.9 | 5.2 | 0.00 | 0.01 | 0.01 | 52 | 1012.6 |
| 20260510175404 | 71 | 123 | 0.9 | 2.6 | 0.00 | 0.01 | 0.01 | 57 | 1012.8 |
| 20260510174932 | 71 | 140 | 0.0 | 1.7 | 0.00 | 0.01 | 0.01 | 56 | 1012.8 |
| 20260510174442 | 71 | 107 | 0.0 | 0.9 | 0.00 | 0.01 | 0.01 | 57 | 1012.2 |
| 20260510174015 | 71 | 139 | 0.0 | 1.7 | 0.00 | 0.01 | 0.01 | 59 | 1012.5 |
| 20260510173529 | 70 | 100 | 0.0 | 1.7 | 0.00 | 0.01 | 0.01 | 61 | 1012.4 |
| 20260510173114 | 70 | 112 | 1.7 | 2.6 | 0.00 | 0.01 | 0.01 | 61 | 1012.2 |
| 20260510172644 | 70 | 137 | 0.0 | 0.9 | 0.00 | 0.01 | 0.01 | 62 | 1012.1 |
| 20260510172210 | 70 | 194 | 3.5 | 5.2 | 0.00 | 0.01 | 0.01 | 62 | 1012.3 |
| 20260510171744 | 70 | 163 | 1.7 | 3.5 | 0.00 | 0.01 | 0.01 | 63 | 1012.3 |
| 20260510171334 | 70 | 161 | 2.6 | 7.8 | 0.00 | 0.01 | 0.01 | 64 | 1012.5 |
| 20260510170924 | 69 | 203 | 5.2 | 7.8 | 0.00 | 0.01 | 0.01 | 65 | 1012.3 |
| 20260510170455 | 69 | 164 | 3.5 | 5.2 | 0.00 | 0.01 | 0.01 | 67 | 1012.3 |
| 20260510170019 | 69 | 176 | 5.2 | 7.0 | 0.00 | 0.01 | 0.01 | 68 | 1012.2 |
| 20260510165520 | 68 | 132 | 0.9 | 3.5 | 0.00 | 0.01 | 0.01 | 73 | 1012.3 |
| 20260510165100 | 68 | 102 | 1.7 | 8.7 | 0.00 | 0.01 | 0.01 | 73 | 1012.2 |
| 20260510164652 | 67 | 138 | 3.5 | 7.8 | 0.00 | 0.01 | 0.01 | 73 | 1012.3 |
| 20260510164210 | 67 | 155 | 5.2 | 5.2 | 0.00 | 0.01 | 0.01 | 74 | 1012.5 |
| 20260510163749 | 66 | 152 | 5.2 | 11.3 | 0.00 | 0.01 | 0.01 | 73 | 1012.9 |
| 20260510163344 | 66 | 164 | 5.2 | 8.7 | 0.00 | 0.01 | 0.01 | 74 | 1012.8 |
| 20260510162919 | 66 | 138 | 2.6 | 5.2 | 0.00 | 0.01 | 0.01 | 74 | 1012.8 |
| 20260510162444 | 66 | 130 | 4.3 | 8.7 | 0.00 | 0.01 | 0.01 | 75 | 1013.1 |
| 20260510162029 | 66 | 139 | 5.2 | 8.7 | 0.00 | 0.01 | 0.01 | 74 | 1013.1 |
| 20260510161532 | 66 | 151 | 1.7 | 9.6 | 0.00 | 0.01 | 0.01 | 75 | 1013.2 |
| 20260510161035 | 66 | 153 | 7.0 | 11.3 | 0.00 | 0.01 | 0.01 | 75 | 1013.0 |
| 20260510160539 | 66 | 119 | 4.3 | 8.7 | 0.00 | 0.01 | 0.01 | 74 | 1012.8 |
| 20260510160041 | 67 | 173 | 3.5 | 7.8 | 0.00 | 0.01 | 0.01 | 74 | 1012.8 |
| 20260510155559 | 67 | 154 | 6.1 | 7.8 | 0.00 | 0.01 | 0.01 | 72 | 1012.9 |
| 20260510155134 | 67 | 156 | 5.2 | 10.4 | 0.00 | 0.01 | 0.01 | 73 | 1012.8 |
| 20260510154654 | 68 | 156 | 1.7 | 4.3 | 0.00 | 0.01 | 0.01 | 72 | 1012.6 |
| 20260510154232 | 68 | 216 | 5.2 | 7.8 | 0.00 | 0.01 | 0.01 | 72 | 1012.8 |
| 20260510153739 | 67 | 166 | 2.6 | 8.7 | 0.00 | 0.01 | 0.01 | 74 | 1012.5 |
| 20260510153309 | 67 | 193 | 1.7 | 7.0 | 0.00 | 0.01 | 0.01 | 74 | 1012.8 |
| 20260510152844 | 67 | 140 | 6.1 | 12.2 | 0.00 | 0.01 | 0.01 | 74 | 1012.8 |
| 20260510152349 | 66 | 183 | 4.3 | 8.7 | 0.00 | 0.01 | 0.01 | 75 | 1012.9 |
| 20260510151949 | 66 | 174 | 4.3 | 11.3 | 0.00 | 0.01 | 0.01 | 75 | 1012.8 |
| 20260510151511 | 66 | 113 | 5.2 | 7.8 | 0.00 | 0.01 | 0.01 | 76 | 1012.5 |
| 20260510151104 | 67 | 159 | 4.3 | 8.7 | 0.00 | 0.01 | 0.01 | 75 | 1012.5 |
| 20260510150609 | 67 | 149 | 7.0 | 8.7 | 0.00 | 0.01 | 0.01 | 75 | 1012.5 |
| 20260510150124 | 66 | 158 | 6.1 | 8.7 | 0.00 | 0.01 | 0.01 | 77 | 1012.9 |
| 20260510145645 | 66 | 153 | 5.2 | 8.7 | 0.00 | 0.01 | 0.01 | 77 | 1012.8 |
| 20260510145214 | 66 | 175 | 3.5 | 5.2 | 0.00 | 0.01 | 0.01 | 79 | 1013.0 |
| 20260510144739 | 66 | 113 | 4.3 | 9.6 | 0.00 | 0.01 | 0.01 | 80 | 1013.2 |
| 20260510144322 | 66 | 163 | 3.5 | 7.8 | 0.00 | 0.01 | 0.01 | 80 | 1013.2 |
| 20260510143839 | 66 | 167 | 5.2 | 7.8 | 0.00 | 0.01 | 0.01 | 80 | 1013.5 |
| 20260510143409 | 66 | 112 | 0.0 | 4.3 | 0.00 | 0.01 | 0.01 | 79 | 1013.4 |
| 20260510142934 | 66 | 199 | 3.5 | 8.7 | 0.00 | 0.01 | 0.01 | 80 | 1013.6 |
| 20260510142524 | 67 | 189 | 7.0 | 9.6 | 0.00 | 0.01 | 0.01 | 78 | 1013.4 |
| 20260510142044 | 67 | 141 | 4.3 | 9.6 | 0.00 | 0.01 | 0.01 | 77 | 1013.4 |
| 20260510141639 | 68 | 205 | 3.5 | 7.0 | 0.00 | 0.01 | 0.01 | 75 | 1013.4 |
| 20260510141149 | 68 | 149 | 4.3 | 7.8 | 0.00 | 0.01 | 0.01 | 75 | 1013.5 |
| 20260510140752 | 68 | 213 | 5.2 | 7.8 | 0.00 | 0.01 | 0.01 | 74 | 1013.6 |
| 20260510140252 | 68 | 208 | 4.3 | 9.6 | 0.00 | 0.01 | 0.01 | 74 | 1013.6 |
| 20260510135809 | 68 | 139 | 1.7 | 7.8 | 0.00 | 0.01 | 0.01 | 73 | 1013.5 |
| 20260510135404 | 67 | 226 | 3.5 | 8.7 | 0.00 | 0.01 | 0.01 | 77 | 1013.7 |
| 20260510134959 | 67 | 158 | 3.5 | 8.7 | 0.00 | 0.01 | 0.01 | 77 | 1013.6 |
| 20260510134509 | 67 | 116 | 5.2 | 10.4 | 0.01 | 0.01 | 0.01 | 77 | 1013.7 |
| 20260510134049 | 68 | 118 | 1.7 | 9.6 | 0.01 | 0.01 | 0.01 | 77 | 1013.6 |
| 20260510133129 | 67 | 90 | 1.7 | 4.3 | 0.01 | 0.01 | 0.01 | 78 | 1013.8 |
| 20260510132655 | 67 | 145 | 4.3 | 7.0 | 0.01 | 0.01 | 0.01 | 75 | 1013.8 |
| 20260510132214 | 67 | 102 | 0.0 | 3.5 | 0.01 | 0.01 | 0.01 | 75 | 1013.5 |
| 20260510131729 | 67 | 161 | 3.5 | 7.0 | 0.01 | 0.01 | 0.01 | 76 | 1013.8 |
| 20260510131329 | 68 | 199 | 5.2 | 7.8 | 0.01 | 0.01 | 0.01 | 77 | 1013.8 |
| 20260510130909 | 66 | 128 | 1.7 | 8.7 | 0.01 | 0.01 | 0.01 | 78 | 1013.9 |
| 20260510130444 | 67 | 190 | 5.2 | 7.8 | 0.01 | 0.01 | 0.01 | 81 | 1013.8 |
| 20260510125949 | 65 | 220 | 6.1 | 8.7 | 0.01 | 0.01 | 0.01 | 83 | 1013.9 |
| 20260510125524 | 65 | 135 | 0.0 | 2.6 | 0.01 | 0.01 | 0.01 | 86 | 1014.1 |
| 20260510125049 | 64 | 143 | 0.9 | 4.3 | 0.01 | 0.01 | 0.01 | 86 | 1013.8 |
| 20260510124614 | 64 | 236 | 3.5 | 4.3 | 0.00 | 0.00 | 0.00 | 84 | 1013.8 |
| 20260510124139 | 64 | 122 | 1.7 | 2.6 | 0.00 | 0.00 | 0.00 | 84 | 1013.8 |
| 20260510123654 | 65 | 155 | 3.5 | 4.3 | 0.00 | 0.00 | 0.00 | 82 | 1013.8 |
| 20260510123219 | 65 | 139 | 0.9 | 4.3 | 0.00 | 0.00 | 0.00 | 82 | 1013.9 |
| 20260510122809 | 65 | 140 | 0.9 | 4.3 | 0.00 | 0.00 | 0.00 | 81 | 1013.5 |
| 20260510122317 | 66 | 99 | 0.0 | 4.3 | 0.00 | 0.00 | 0.00 | 79 | 1013.7 |
| 20260510121839 | 66 | 143 | 0.9 | 4.3 | 0.00 | 0.00 | 0.00 | 78 | 1013.6 |
| 20260510121404 | 66 | 89 | 3.5 | 5.2 | 0.00 | 0.00 | 0.00 | 78 | 1013.8 |
| 20260510120954 | 65 | 137 | 2.6 | 5.2 | 0.00 | 0.00 | 0.00 | 78 | 1013.8 |
| 20260510120546 | 66 | 129 | 2.6 | 5.2 | 0.00 | 0.00 | 0.00 | 77 | 1013.9 |
| 20260510120054 | 66 | 188 | 1.7 | 3.5 | 0.00 | 0.00 | 0.00 | 77 | 1013.7 |
| 20260510115624 | 67 | 131 | 3.5 | 4.3 | 0.00 | 0.00 | 0.00 | 77 | 1013.7 |
| 20260510115214 | 67 | 178 | 1.7 | 4.3 | 0.00 | 0.00 | 0.00 | 77 | 1013.8 |
| 20260510114800 | 67 | 109 | 4.3 | 5.2 | 0.00 | 0.00 | 0.00 | 77 | 1013.8 |
| 20260510114324 | 67 | 121 | 2.6 | 2.6 | 0.00 | 0.00 | 0.00 | 77 | 1013.8 |
| 20260510113912 | 66 | 91 | 0.0 | 5.2 | 0.00 | 0.00 | 0.00 | 78 | 1014.0 |
| 20260510113509 | 66 | 165 | 3.5 | 4.3 | 0.00 | 0.00 | 0.00 | 78 | 1013.9 |
| 20260510113029 | 66 | 138 | 4.3 | 7.0 | 0.00 | 0.00 | 0.00 | 78 | 1013.9 |
| 20260510112604 | 65 | 150 | 3.5 | 5.2 | 0.00 | 0.00 | 0.00 | 79 | 1014.0 |
| 20260510112119 | 66 | 124 | 3.5 | 4.3 | 0.00 | 0.00 | 0.00 | 77 | 1014.1 |
| 20260510111649 | 65 | 103 | 0.0 | 2.6 | 0.00 | 0.00 | 0.00 | 77 | 1014.3 |
| 20260510111219 | 65 | 92 | 3.5 | 5.2 | 0.00 | 0.00 | 0.00 | 77 | 1014.0 |
| 20260510110809 | 66 | 126 | 4.3 | 7.0 | 0.00 | 0.00 | 0.00 | 77 | 1014.2 |
| 20260510110349 | 65 | 146 | 2.6 | 4.3 | 0.00 | 0.00 | 0.00 | 77 | 1014.1 |
| 20260510105924 | 65 | 105 | 2.6 | 5.2 | 0.00 | 0.00 | 0.00 | 78 | 1014.3 |
| 20260510105509 | 65 | 132 | 4.3 | 8.7 | 0.00 | 0.00 | 0.00 | 77 | 1014.2 |
| 20260510105109 | 66 | 164 | 5.2 | 7.0 | 0.00 | 0.00 | 0.00 | 76 | 1014.2 |
| 20260510104647 | 67 | 169 | 6.1 | 7.8 | 0.00 | 0.00 | 0.00 | 75 | 1014.2 |
| 20260510104219 | 66 | 143 | 4.3 | 7.0 | 0.00 | 0.00 | 0.00 | 75 | 1014.4 |
| 20260510103724 | 66 | 123 | 0.9 | 5.2 | 0.00 | 0.00 | 0.00 | 76 | 1014.2 |
| 20260510103249 | 66 | 112 | 4.3 | 5.2 | 0.00 | 0.00 | 0.00 | 76 | 1014.2 |
| 20260510102804 | 65 | 154 | 6.1 | 7.8 | 0.00 | 0.00 | 0.00 | 77 | 1014.4 |
| 20260510102349 | 66 | 126 | 4.3 | 5.2 | 0.00 | 0.00 | 0.00 | 76 | 1014.2 |
| 20260510101924 | 65 | 113 | 2.6 | 5.2 | 0.00 | 0.00 | 0.00 | 76 | 1014.2 |
| 20260510101504 | 65 | 92 | 2.6 | 5.2 | 0.00 | 0.00 | 0.00 | 77 | 1014.6 |
| 20260510101038 | 67 | 134 | 5.2 | 7.0 | 0.00 | 0.00 | 0.00 | 73 | 1014.3 |
| 20260510100634 | 65 | 117 | 0.9 | 4.3 | 0.00 | 0.00 | 0.00 | 76 | 1014.2 |
| 20260510100134 | 65 | 136 | 2.6 | 3.5 | 0.00 | 0.00 | 0.00 | 77 | 1014.4 |
| 20260510095734 | 65 | 143 | 1.7 | 2.6 | 0.00 | 0.00 | 0.00 | 78 | 1014.2 |
| 20260510095306 | 65 | 123 | 1.7 | 3.5 | 0.00 | 0.00 | 0.00 | 78 | 1014.3 |
| 20260510094844 | 64 | 114 | 0.9 | 1.7 | 0.00 | 0.00 | 0.00 | 79 | 1014.4 |
| 20260510094409 | 64 | 107 | 0.9 | 2.6 | 0.00 | 0.00 | 0.00 | 79 | 1014.2 |
| 20260510093909 | 64 | 120 | 1.7 | 2.6 | 0.00 | 0.00 | 0.00 | 79 | 1014.1 |
| 20260510093444 | 64 | 112 | 1.7 | 2.6 | 0.00 | 0.00 | 0.00 | 79 | 1014.3 |
| 20260510092949 | 64 | 108 | 0.9 | 1.7 | 0.00 | 0.00 | 0.00 | 80 | 1014.1 |
| 20260510092024 | 64 | 110 | 1.7 | 3.5 | 0.00 | 0.00 | 0.00 | 82 | 1014.0 |
| 20260510091602 | 63 | 125 | 3.5 | 3.5 | 0.00 | 0.00 | 0.00 | 82 | 1014.1 |
| 20260510091139 | 63 | 64 | 0.9 | 4.3 | 0.00 | 0.00 | 0.00 | 83 | 1014.0 |
| 20260510090639 | 64 | 129 | 3.5 | 5.2 | 0.00 | 0.00 | 0.00 | 84 | 1014.1 |
| 20260510090239 | 64 | 93 | 2.6 | 4.3 | 0.00 | 0.00 | 0.00 | 83 | 1014.1 |
| 20260510085754 | 64 | 87 | 0.9 | 1.7 | 0.00 | 0.00 | 0.00 | 82 | 1014.2 |
| 20260510085306 | 65 | 106 | 0.9 | 3.5 | 0.00 | 0.00 | 0.00 | 81 | 1014.2 |
| 20260510084819 | 64 | 114 | 0.0 | 1.7 | 0.00 | 0.00 | 0.00 | 79 | 1014.2 |
| 20260510084339 | 64 | 102 | 0.9 | 2.6 | 0.00 | 0.00 | 0.00 | 80 | 1013.9 |
| 20260510083929 | 64 | 86 | 0.0 | 3.5 | 0.00 | 0.00 | 0.00 | 80 | 1014.0 |
| 20260510083514 | 64 | 151 | 1.7 | 3.5 | 0.00 | 0.00 | 0.00 | 80 | 1013.9 |
| 20260510083049 | 64 | 99 | 0.9 | 3.5 | 0.00 | 0.00 | 0.00 | 80 | 1013.8 |
| 20260510082622 | 64 | 128 | 1.7 | 2.6 | 0.00 | 0.00 | 0.00 | 80 | 1014.0 |
| 20260510082159 | 64 | 94 | 0.9 | 2.6 | 0.00 | 0.00 | 0.00 | 80 | 1013.8 |
| 20260510081734 | 65 | 93 | 0.0 | 0.9 | 0.00 | 0.00 | 0.00 | 79 | 1013.8 |
| 20260510081249 | 65 | 103 | 0.9 | 2.6 | 0.00 | 0.00 | 0.00 | 79 | 1013.8 |
| 20260510080834 | 64 | 117 | 0.0 | 2.6 | 0.00 | 0.00 | 0.00 | 79 | 1013.8 |
| 20260510080359 | 64 | 119 | 1.7 | 2.6 | 0.00 | 0.00 | 0.00 | 80 | 1013.8 |
| 20260510075902 | 64 | 101 | 1.7 | 2.6 | 0.00 | 0.00 | 0.00 | 79 | 1013.9 |
| 20260510075429 | 64 | 111 | 1.7 | 2.6 | 0.00 | 0.00 | 0.00 | 80 | 1013.9 |
| 20260510074959 | 64 | 102 | 1.7 | 3.5 | 0.00 | 0.00 | 0.00 | 80 | 1013.8 |
| 20260510074524 | 64 | 124 | 1.7 | 2.6 | 0.00 | 0.00 | 0.00 | 79 | 1013.8 |
| 20260510074049 | 64 | 109 | 0.9 | 2.6 | 0.00 | 0.00 | 0.00 | 79 | 1013.8 |
| 20260510073554 | 64 | 85 | 0.0 | 1.7 | 0.00 | 0.00 | 0.00 | 79 | 1013.8 |
| 20260510073134 | 64 | 95 | 0.0 | 0.9 | 0.00 | 0.00 | 0.00 | 79 | 1013.7 |
| 20260510072654 | 64 | 96 | 1.7 | 2.6 | 0.00 | 0.00 | 0.00 | 79 | 1013.8 |
| 20260510072249 | 65 | 110 | 0.0 | 0.9 | 0.00 | 0.00 | 0.00 | 78 | 1013.7 |
| 20260510071829 | 64 | 99 | 0.0 | 0.0 | 0.00 | 0.00 | 0.00 | 79 | 1013.7 |
| 20260510071344 | 65 | 121 | 0.0 | 0.0 | 0.00 | 0.00 | 0.00 | 78 | 1013.5 |
| 20260510070857 | 64 | 83 | 0.0 | 0.0 | 0.00 | 0.00 | 0.00 | 79 | 1013.6 |
| 20260510070424 | 64 | 107 | 0.0 | 0.0 | 0.00 | 0.00 | 0.00 | 80 | 1013.3 |
| 20260510070006 | 64 | 99 | 0.0 | 0.0 | 0.00 | 0.00 | 0.00 | 81 | 1013.4 |
| 20260510065534 | 63 | 76 | 0.0 | 0.9 | 0.00 | 0.00 | 0.00 | 83 | 1013.5 |
| 20260510065044 | 63 | 60 | 0.0 | 0.9 | 0.00 | 0.00 | 0.00 | 84 | 1013.6 |
| 20260510064554 | 62 | 86 | 0.0 | 0.9 | 0.00 | 0.00 | 0.00 | 84 | 1013.5 |
| 20260510064134 | 63 | 97 | 0.0 | 0.9 | 0.00 | 0.00 | 0.00 | 85 | 1013.5 |
| 20260510063714 | 63 | 97 | 0.0 | 0.0 | 0.00 | 0.00 | 0.00 | 85 | 1013.4 |
| 20260510063213 | 62 | 101 | 0.0 | 0.0 | 0.00 | 0.00 | 0.00 | 86 | 1013.7 |
| 20260510062734 | 63 | 102 | 0.0 | 0.0 | 0.00 | 0.00 | 0.00 | 87 | 1013.7 |
| 20260510062241 | 62 | 96 | 0.0 | 0.0 | 0.00 | 0.00 | 0.00 | 88 | 1013.5 |
| 20260510061754 | 62 | 118 | 0.0 | 0.0 | 0.00 | 0.00 | 0.00 | 88 | 1013.5 |
| 20260510061259 | 61 | 104 | 0.0 | 0.0 | 0.00 | 0.00 | 0.00 | 89 | 1013.6 |
| 20260510060829 | 61 | 109 | 0.0 | 0.0 | 0.00 | 0.00 | 0.00 | 90 | 1013.4 |
| 20260510060331 | 61 | 99 | 0.0 | 0.0 | 0.00 | 0.00 | 0.00 | 90 | 1013.3 |
| 20260510055859 | 60 | 100 | 0.0 | 0.0 | 0.00 | 0.00 | 0.00 | 91 | 1013.3 |
| 20260510055419 | 59 | 98 | 0.0 | 0.0 | 0.00 | 0.00 | 0.00 | 91 | 1013.3 |
| 20260510055004 | 59 | 94 | 0.0 | 0.0 | 0.00 | 0.00 | 0.00 | 92 | 1013.5 |
| 20260510054514 | 59 | 106 | 0.0 | 0.0 | 0.00 | 0.00 | 0.00 | 92 | 1013.2 |
| 20260510054059 | 59 | 113 | 0.0 | 0.0 | 0.00 | 0.00 | 0.00 | 92 | 1013.3 |
| 20260510053624 | 59 | 77 | 0.0 | 0.0 | 0.00 | 0.00 | 0.00 | 91 | 1013.1 |
| 20260510053224 | 59 | 159 | 0.0 | 0.0 | 0.00 | 0.00 | 0.00 | 91 | 1013.1 |
| 20260510052741 | 59 | 83 | 0.0 | 0.0 | 0.00 | 0.00 | 0.00 | 91 | 1013.3 |
| 20260510052314 | 59 | 114 | 0.0 | 0.0 | 0.00 | 0.00 | 0.00 | 91 | 1013.1 |
| 20260510051844 | 59 | 118 | 0.0 | 0.0 | 0.00 | 0.00 | 0.00 | 91 | 1013.1 |
| 20260510051409 | 59 | 92 | 0.0 | 0.0 | 0.00 | 0.00 | 0.00 | 91 | 1013.1 |
| 20260510050914 | 59 | 96 | 0.0 | 0.0 | 0.00 | 0.00 | 0.00 | 91 | 1013.1 |
| 20260510050440 | 59 | 83 | 0.0 | 0.0 | 0.00 | 0.00 | 0.00 | 90 | 1012.9 |
| 20260510045939 | 59 | 103 | 0.0 | 0.0 | 0.00 | 0.00 | 0.00 | 90 | 1013.0 |
| 20260510045507 | 59 | 85 | 0.0 | 0.0 | 0.00 | 0.00 | 0.00 | 90 | 1013.1 |
| 20260510045104 | 59 | 89 | 0.0 | 0.0 | 0.00 | 0.00 | 0.00 | 90 | 1012.8 |
| 20260510044639 | 59 | 103 | 0.0 | 0.0 | 0.00 | 0.00 | 0.00 | 90 | 1012.9 |
| 20260510044230 | 59 | 89 | 0.0 | 0.0 | 0.00 | 0.00 | 0.00 | 90 | 1012.6 |
| 20260510043744 | 59 | 82 | 0.0 | 0.0 | 0.00 | 0.00 | 0.00 | 90 | 1013.1 |
| 20260510043335 | 59 | 106 | 0.0 | 0.0 | 0.00 | 0.00 | 0.00 | 90 | 1012.8 |
| 20260510042929 | 59 | 110 | 0.0 | 0.0 | 0.00 | 0.00 | 0.00 | 90 | 1012.9 |
| 20260510042530 | 59 | 107 | 0.0 | 0.0 | 0.00 | 0.00 | 0.00 | 89 | 1012.8 |
| 20260510042124 | 59 | 104 | 0.0 | 0.0 | 0.00 | 0.00 | 0.00 | 89 | 1012.9 |
| 20260510041709 | 59 | 103 | 0.0 | 0.0 | 0.00 | 0.00 | 0.00 | 89 | 1012.6 |
| 20260510041304 | 60 | 117 | 0.0 | 0.9 | 0.00 | 0.00 | 0.00 | 89 | 1012.8 |
| 20260510040845 | 60 | 105 | 0.0 | 0.0 | 0.00 | 0.00 | 0.00 | 88 | 1012.8 |
| 20260510040354 | 60 | 105 | 0.0 | 0.0 | 0.00 | 0.00 | 0.00 | 88 | 1012.6 |
| 20260510035934 | 60 | 101 | 0.0 | 0.0 | 0.00 | 0.00 | 0.00 | 88 | 1012.6 |
| 20260510035500 | 60 | 106 | 0.0 | 0.0 | 0.00 | 0.00 | 0.00 | 88 | 1012.9 |
| 20260510035049 | 60 | 108 | 0.0 | 0.0 | 0.00 | 0.00 | 0.00 | 88 | 1012.8 |
| 20260510034604 | 60 | 102 | 0.0 | 0.0 | 0.00 | 0.00 | 0.00 | 87 | 1012.8 |
| 20260510034104 | 60 | 113 | 0.0 | 1.7 | 0.00 | 0.00 | 0.00 | 87 | 1012.8 |
| 20260510033639 | 60 | 109 | 0.0 | 0.0 | 0.00 | 0.00 | 0.00 | 88 | 1012.9 |
| 20260510033154 | 60 | 104 | 0.0 | 0.0 | 0.00 | 0.00 | 0.00 | 88 | 1012.8 |
| 20260510032734 | 60 | 99 | 0.0 | 0.0 | 0.00 | 0.00 | 0.00 | 88 | 1013.0 |
| 20260510032306 | 60 | 105 | 0.0 | 0.0 | 0.00 | 0.00 | 0.00 | 88 | 1012.9 |
| 20260510031849 | 60 | 125 | 0.0 | 0.0 | 0.00 | 0.00 | 0.00 | 87 | 1013.1 |
| 20260510031400 | 60 | 117 | 0.0 | 0.0 | 0.00 | 0.00 | 0.00 | 87 | 1012.9 |
| 20260510030914 | 60 | 101 | 0.0 | 0.0 | 0.00 | 0.00 | 0.00 | 87 | 1012.9 |
| 20260510030505 | 61 | 111 | 0.0 | 0.9 | 0.00 | 0.00 | 0.00 | 87 | 1013.0 |
| 20260510030054 | 60 | 114 | 0.9 | 1.7 | 0.00 | 0.00 | 0.00 | 87 | 1013.0 |
| 20260510025619 | 61 | 104 | 0.0 | 0.0 | 0.00 | 0.00 | 0.00 | 87 | 1013.0 |
| 20260510025154 | 61 | 103 | 0.0 | 0.9 | 0.00 | 0.00 | 0.00 | 87 | 1013.1 |
| 20260510024659 | 61 | 103 | 0.0 | 0.0 | 0.00 | 0.00 | 0.00 | 87 | 1012.9 |
| 20260510024249 | 61 | 103 | 0.0 | 0.0 | 0.00 | 0.00 | 0.00 | 87 | 1013.1 |
| 20260510023839 | 60 | 102 | 0.0 | 0.0 | 0.00 | 0.00 | 0.00 | 87 | 1013.1 |
| 20260510023434 | 60 | 96 | 0.0 | 0.0 | 0.00 | 0.00 | 0.00 | 86 | 1013.1 |
| 20260510023005 | 60 | 99 | 0.0 | 0.9 | 0.00 | 0.00 | 0.00 | 86 | 1013.1 |
| 20260510022549 | 60 | 105 | 0.0 | 0.9 | 0.00 | 0.00 | 0.00 | 87 | 1013.0 |
| 20260510022146 | 60 | 103 | 0.0 | 0.0 | 0.00 | 0.00 | 0.00 | 86 | 1013.2 |
| 20260510021724 | 60 | 97 | 0.0 | 0.0 | 0.00 | 0.00 | 0.00 | 86 | 1013.1 |
| 20260510021324 | 60 | 89 | 0.0 | 0.0 | 0.00 | 0.00 | 0.00 | 86 | 1013.0 |
| 20260510020909 | 60 | 97 | 0.0 | 0.0 | 0.00 | 0.00 | 0.00 | 86 | 1013.1 |
| 20260510020424 | 60 | 97 | 0.0 | 0.0 | 0.00 | 0.00 | 0.00 | 86 | 1013.1 |
| 20260510015924 | 60 | 96 | 0.0 | 0.0 | 0.00 | 0.00 | 0.00 | 85 | 1013.4 |
| 20260510015454 | 60 | 101 | 0.0 | 0.0 | 0.00 | 0.00 | 0.00 | 85 | 1013.2 |
| 20260510015003 | 61 | 102 | 0.0 | 1.7 | 0.00 | 0.00 | 0.00 | 84 | 1013.0 |
| 20260510014549 | 61 | 92 | 0.0 | 0.9 | 0.00 | 0.00 | 0.00 | 83 | 1013.0 |
| 20260510014149 | 61 | 94 | 0.0 | 0.9 | 0.00 | 0.00 | 0.00 | 82 | 1013.2 |
| 20260510013719 | 61 | 98 | 0.0 | 0.0 | 0.00 | 0.00 | 0.00 | 82 | 1013.1 |
| 20260510013304 | 62 | 99 | 0.0 | 0.0 | 0.00 | 0.00 | 0.00 | 81 | 1013.1 |
| 20260510012834 | 62 | 103 | 0.0 | 0.9 | 0.00 | 0.00 | 0.00 | 81 | 1013.1 |
| 20260510012439 | 62 | 114 | 0.0 | 0.9 | 0.00 | 0.00 | 0.00 | 80 | 1013.2 |
| 20260510012004 | 62 | 132 | 0.0 | 1.7 | 0.00 | 0.00 | 0.00 | 80 | 1013.3 |
| 20260510011525 | 62 | 134 | 1.7 | 3.5 | 0.00 | 0.00 | 0.00 | 80 | 1013.3 |
| 20260510011034 | 62 | 143 | 0.9 | 0.9 | 0.00 | 0.00 | 0.00 | 80 | 1013.5 |
| 20260510010617 | 62 | 109 | 0.0 | 0.9 | 0.00 | 0.00 | 0.00 | 79 | 1013.3 |
| 20260510010144 | 62 | 144 | 0.0 | 0.9 | 0.00 | 0.00 | 0.00 | 79 | 1013.3 |
| 20260510005650 | 62 | 117 | 0.0 | 0.0 | 0.00 | 0.00 | 0.00 | 78 | 1013.3 |
| 20260510005240 | 62 | 104 | 0.0 | 0.0 | 0.00 | 0.00 | 0.00 | 78 | 1013.4 |
| 20260510004755 | 62 | 111 | 0.0 | 0.9 | 0.00 | 0.00 | 0.00 | 78 | 1013.5 |
| 20260510004316 | 62 | 130 | 0.9 | 2.6 | 0.00 | 0.00 | 0.00 | 77 | 1013.5 |
| 20260510003900 | 62 | 154 | 1.7 | 3.5 | 0.00 | 0.00 | 0.00 | 78 | 1013.7 |
| 20260510003450 | 62 | 170 | 0.9 | 2.6 | 0.00 | 0.00 | 0.00 | 78 | 1013.7 |
| 20260510003000 | 60 | 120 | 0.9 | 2.6 | 0.00 | 0.00 | 0.00 | 81 | 1013.5 |
| 20260510002500 | 60 | 118 | 0.0 | 0.9 | 0.00 | 0.00 | 0.00 | 82 | 1013.6 |
| 20260510002045 | 60 | 99 | 0.0 | 0.0 | 0.00 | 0.00 | 0.00 | 82 | 1013.7 |
| 20260510001640 | 61 | 101 | 0.0 | 0.0 | 0.00 | 0.00 | 0.00 | 82 | 1013.6 |
| 20260510001235 | 60 | 93 | 0.0 | 0.0 | 0.00 | 0.00 | 0.00 | 81 | 1013.7 |
| 20260510000745 | 61 | 103 | 0.0 | 0.0 | 0.00 | 0.00 | 0.00 | 80 | 1013.8 |
| 20260510000315 | 61 | 119 | 0.0 | 0.0 | 0.00 | 0.00 | 0.00 | 80 | 1013.7 |
| 20260509235850 | 61 | 64 | 1.7 | 1.7 | 0.00 | 0.00 | 0.00 | 79 | 1013.6 |
| 20260509235410 | 62 | 95 | 0.0 | 0.9 | 0.00 | 0.00 | 0.00 | 78 | 1013.7 |
| 20260509234917 | 62 | 78 | 0.0 | 0.0 | 0.00 | 0.00 | 0.00 | 77 | 1013.8 |